Time;durP1;ratioP1;P1;durP2;ratioP2;P2;SDS_P1;SDS_P2;PMS_P1;PMS_P2;Temp;Humidity;BMP_temperature;BMP_pressure;BME280_temperature;BME280_humidity;BME280_pressure;Samples;Min_cycle;Max_cycle;Signal;HPM_P1;HPM_P2
2024/01/17 00:00:35;;;;;;;21.73;8.73;;;0.90;99.90;;;;;;7283156;19;20193;-75
2024/01/17 00:03:01;;;;;;;18.03;7.60;;;0.80;99.90;;;;;;7279335;19;20526;-75
2024/01/17 00:05:28;;;;;;;18.07;7.67;;;0.80;99.90;;;;;;7280459;19;20782;-75
2024/01/17 00:07:53;;;;;;;15.10;7.00;;;0.60;99.90;;;;;;7281809;19;20181;-74
2024/01/17 00:10:19;;;;;;;19.97;8.33;;;0.40;99.90;;;;;;7302555;19;20203;-74
2024/01/17 00:12:45;;;;;;;18.60;8.37;;;0.50;99.90;;;;;;7283427;19;20189;-76
2024/01/17 00:15:11;;;;;;;24.30;9.03;;;0.40;99.90;;;;;;7281108;19;20525;-75
2024/01/17 00:17:36;;;;;;;20.83;8.50;;;0.50;99.90;;;;;;7279718;19;20587;-75
2024/01/17 00:20:02;;;;;;;18.37;8.20;;;0.50;99.90;;;;;;7280306;19;20589;-74
2024/01/17 00:22:28;;;;;;;19.77;8.37;;;0.50;99.90;;;;;;7279841;19;20301;-74
2024/01/17 00:24:54;;;;;;;18.20;7.50;;;0.50;99.90;;;;;;7279964;19;20269;-74
2024/01/17 00:27:24;;;;;;;16.97;7.07;;;0.50;99.90;;;;;;7295104;19;20204;-74
2024/01/17 00:29:57;;;;;;;18.77;7.30;;;0.50;99.90;;;;;;7294541;19;20701;-74
2024/01/17 00:32:26;;;;;;;18.40;7.30;;;0.40;99.90;;;;;;7279582;19;20196;-75
2024/01/17 00:34:51;;;;;;;16.97;8.03;;;0.40;99.90;;;;;;7280481;19;20624;-74
2024/01/17 00:37:17;;;;;;;17.03;7.47;;;0.30;99.90;;;;;;7301380;19;20197;-75
2024/01/17 00:39:43;;;;;;;20.00;7.97;;;0.30;99.90;;;;;;7279134;19;20192;-75
2024/01/17 00:42:08;;;;;;;16.50;7.60;;;0.30;99.90;;;;;;7278891;19;20864;-76
2024/01/17 00:44:38;;;;;;;17.00;7.37;;;0.40;99.90;;;;;;7279165;19;20220;-75
2024/01/17 00:47:04;;;;;;;14.07;7.43;;;0.50;99.90;;;;;;7280325;19;20197;-75
2024/01/17 00:49:30;;;;;;;15.53;7.23;;;0.50;99.90;;;;;;7279393;19;20190;-74
2024/01/17 00:51:56;;;;;;;18.33;8.07;;;0.60;99.90;;;;;;7278886;19;20203;-75
2024/01/17 00:54:22;;;;;;;16.70;7.53;;;0.70;99.90;;;;;;7277852;19;20177;-74
2024/01/17 00:56:48;;;;;;;18.20;8.00;;;0.60;99.90;;;;;;7301943;19;20193;-75
2024/01/17 00:59:13;;;;;;;16.17;8.50;;;0.70;99.90;;;;;;7279240;19;20219;-75
2024/01/17 01:01:41;;;;;;;17.97;7.57;;;0.70;99.90;;;;;;7279355;19;20683;-75
2024/01/17 01:04:09;;;;;;;18.97;7.53;;;0.70;99.90;;;;;;7276907;19;20217;-74
2024/01/17 01:06:36;;;;;;;17.10;7.43;;;0.80;99.90;;;;;;7279056;19;20196;-75
2024/01/17 01:09:02;;;;;;;16.80;6.47;;;0.80;99.90;;;;;;7277446;19;20586;-75
2024/01/17 01:11:32;;;;;;;17.60;7.40;;;0.80;99.90;;;;;;7279391;19;20201;-75
2024/01/17 01:13:58;;;;;;;16.43;7.10;;;0.90;99.90;;;;;;7278600;19;20188;-75
2024/01/17 01:16:24;;;;;;;15.53;7.13;;;0.90;99.90;;;;;;7277823;19;20185;-75
2024/01/17 01:18:50;;;;;;;16.23;7.00;;;0.90;99.90;;;;;;7300849;19;20740;-75
2024/01/17 01:21:15;;;;;;;18.10;6.53;;;1.00;99.90;;;;;;7277559;19;20192;-75
2024/01/17 01:23:41;;;;;;;12.73;6.47;;;1.10;99.90;;;;;;7277036;19;20623;-75
2024/01/17 01:26:07;;;;;;;14.33;6.70;;;1.00;99.90;;;;;;7278105;19;20260;-75
2024/01/17 01:28:33;;;;;;;14.03;6.13;;;1.00;99.90;;;;;;7277501;19;20195;-75
2024/01/17 01:30:59;;;;;;;14.27;6.97;;;1.00;99.90;;;;;;7277994;19;20189;-75
2024/01/17 01:33:24;;;;;;;15.53;6.60;;;1.10;99.90;;;;;;7278390;19;20200;-74
2024/01/17 01:35:50;;;;;;;14.07;6.10;;;1.00;99.90;;;;;;7297491;19;20290;-75
2024/01/17 01:38:16;;;;;;;15.33;6.37;;;1.00;99.90;;;;;;7276598;19;20177;-75
2024/01/17 01:40:42;;;;;;;13.57;5.93;;;1.00;99.90;;;;;;7278403;19;20194;-76
2024/01/17 01:43:24;;;;;;;13.37;6.40;;;1.00;99.90;;;;;;7277418;19;20196;-76
2024/01/17 01:46:14;;;;;;;14.67;5.93;;;0.90;99.90;;;;;;7277193;19;20554;-74
2024/01/17 01:48:41;;;;;;;16.03;6.33;;;0.90;99.90;;;;;;7175909;19;2004685;-75
2024/01/17 01:51:06;;;;;;;14.47;6.23;;;0.90;99.90;;;;;;7276335;19;20206;-75
2024/01/17 01:53:34;;;;;;;18.13;6.70;;;0.80;99.90;;;;;;7277147;19;20263;-75
2024/01/17 01:56:01;;;;;;;17.60;6.73;;;0.80;99.90;;;;;;7276083;19;20184;-75
2024/01/17 01:58:29;;;;;;;16.37;6.90;;;0.90;99.90;;;;;;7277443;19;20195;-75
2024/01/17 02:00:56;;;;;;;16.80;7.00;;;1.00;99.90;;;;;;7276428;19;20181;-75
2024/01/17 02:03:25;;;;;;;15.73;7.03;;;1.00;99.90;;;;;;7283865;19;20635;-75
2024/01/17 02:05:51;;;;;;;15.77;7.20;;;1.00;99.90;;;;;;7299391;19;20210;-74
2024/01/17 02:08:17;;;;;;;16.73;6.67;;;1.10;99.90;;;;;;7277713;19;20181;-76
2024/01/17 02:10:43;;;;;;;19.60;7.80;;;1.00;99.90;;;;;;7276109;19;20203;-75
2024/01/17 02:13:09;;;;;;;18.23;6.87;;;0.80;99.90;;;;;;7277768;19;20181;-75
2024/01/17 02:15:34;;;;;;;17.23;7.10;;;0.70;99.90;;;;;;7277079;19;20192;-75
2024/01/17 02:18:00;;;;;;;14.63;7.17;;;0.40;99.90;;;;;;7277475;19;20189;-75
2024/01/17 02:20:26;;;;;;;18.17;7.13;;;0.10;99.90;;;;;;7280228;19;20206;-78
2024/01/17 02:22:52;;;;;;;18.67;6.93;;;0.10;99.90;;;;;;7294779;19;20185;-73
2024/01/17 02:25:18;;;;;;;16.97;7.53;;;0.10;99.90;;;;;;7303817;19;20199;-75
2024/01/17 02:27:44;;;;;;;19.57;8.23;;;0.10;99.90;;;;;;7283407;19;20181;-75
2024/01/17 02:30:10;;;;;;;17.10;7.37;;;0.10;99.90;;;;;;7283355;19;20188;-75
2024/01/17 02:32:36;;;;;;;15.77;7.23;;;0.10;99.90;;;;;;7283802;19;20200;-74
2024/01/17 02:35:02;;;;;;;18.53;7.30;;;0.10;99.90;;;;;;7281947;19;20285;-75
2024/01/17 02:37:29;;;;;;;19.70;7.70;;;0.10;99.90;;;;;;7282355;19;20236;-77
2024/01/17 02:39:55;;;;;;;15.90;7.17;;;0.20;99.90;;;;;;7283322;19;20192;-75
2024/01/17 02:42:20;;;;;;;15.77;7.27;;;0.20;99.90;;;;;;7304540;19;20228;-75
2024/01/17 02:44:46;;;;;;;19.10;7.40;;;0.00;99.90;;;;;;7284157;19;20225;-75
2024/01/17 02:47:12;;;;;;;20.67;7.70;;;0.10;99.90;;;;;;7282315;19;20182;-74
2024/01/17 02:49:38;;;;;;;19.27;7.43;;;-0.10;99.90;;;;;;7282993;19;20192;-74
2024/01/17 02:52:05;;;;;;;22.27;8.37;;;0.00;99.90;;;;;;7286823;19;20211;-75
2024/01/17 02:54:31;;;;;;;18.37;7.80;;;-0.10;99.90;;;;;;7289293;19;20220;-74
2024/01/17 02:56:57;;;;;;;18.60;7.73;;;0.00;99.90;;;;;;7286693;19;20190;-74
2024/01/17 02:59:22;;;;;;;18.83;8.13;;;0.00;99.90;;;;;;7289447;19;20209;-74
2024/01/17 03:01:48;;;;;;;17.53;8.07;;;0.00;99.90;;;;;;7305913;19;20184;-75
2024/01/17 03:04:14;;;;;;;21.20;7.87;;;0.10;99.90;;;;;;7283892;19;20268;-75
2024/01/17 03:06:40;;;;;;;17.37;7.47;;;0.20;99.90;;;;;;7283324;19;20189;-75
2024/01/17 03:09:05;;;;;;;18.37;7.77;;;0.20;99.90;;;;;;7282023;19;20185;-75
2024/01/17 03:11:31;;;;;;;20.57;8.33;;;0.10;99.90;;;;;;7281646;19;20694;-75
2024/01/17 03:13:57;;;;;;;22.60;8.27;;;0.10;99.90;;;;;;7281123;19;20177;-76
2024/01/17 03:16:22;;;;;;;20.07;8.07;;;0.20;99.90;;;;;;7288257;19;20181;-74
2024/01/17 03:18:48;;;;;;;17.93;7.37;;;0.10;99.90;;;;;;7302679;19;20539;-76
2024/01/17 03:21:14;;;;;;;16.97;7.63;;;0.20;99.90;;;;;;7278648;19;20705;-76
2024/01/17 03:23:40;;;;;;;17.90;7.37;;;0.30;99.90;;;;;;7281762;19;20197;-77
2024/01/17 03:26:06;;;;;;;20.37;7.30;;;0.30;99.90;;;;;;7279555;19;20550;-76
2024/01/17 03:28:31;;;;;;;17.40;7.30;;;0.30;99.90;;;;;;7280112;19;20193;-75
2024/01/17 03:30:57;;;;;;;18.13;7.60;;;0.30;99.90;;;;;;7279206;19;20233;-75
2024/01/17 03:33:23;;;;;;;18.33;7.47;;;0.20;99.90;;;;;;7286093;19;20180;-76
2024/01/17 03:35:48;;;;;;;13.77;6.80;;;0.10;99.90;;;;;;7302961;19;20195;-75
2024/01/17 03:38:18;;;;;;;16.43;6.73;;;0.20;99.90;;;;;;7281255;19;20187;-76
2024/01/17 03:40:44;;;;;;;18.43;6.90;;;0.10;99.90;;;;;;7280103;19;20721;-76
2024/01/17 03:43:11;;;;;;;18.00;7.57;;;0.20;99.90;;;;;;7281823;19;20193;-76
2024/01/17 03:45:36;;;;;;;16.30;7.00;;;0.20;99.90;;;;;;7278801;19;20193;-75
2024/01/17 03:48:04;;;;;;;16.37;7.03;;;0.10;99.90;;;;;;7280981;19;21051;-76
2024/01/17 03:50:30;;;;;;;16.73;6.77;;;0.00;99.90;;;;;;7279596;19;20220;-76
2024/01/17 03:52:56;;;;;;;17.07;6.90;;;-0.20;99.90;;;;;;7281447;19;20180;-76
2024/01/17 03:55:22;;;;;;;15.50;6.53;;;-0.10;99.90;;;;;;7295494;19;20991;-75
2024/01/17 03:57:47;;;;;;;14.70;6.50;;;-0.10;99.90;;;;;;7298190;19;20217;-76
2024/01/17 04:00:14;;;;;;;14.47;6.27;;;-0.20;99.90;;;;;;7281929;19;20192;-75
2024/01/17 04:02:40;;;;;;;14.23;6.43;;;-0.30;99.90;;;;;;7279390;19;20192;-75
2024/01/17 04:05:07;;;;;;;15.33;6.47;;;-0.30;99.90;;;;;;7280315;19;20190;-76
2024/01/17 04:07:32;;;;;;;16.70;6.77;;;-0.40;99.90;;;;;;7280782;19;20190;-75
2024/01/17 04:09:58;;;;;;;18.50;7.23;;;-0.20;99.90;;;;;;7279912;19;20568;-76
2024/01/17 04:12:24;;;;;;;18.37;7.27;;;-0.20;99.90;;;;;;7279864;19;20208;-75
2024/01/17 04:14:50;;;;;;;13.53;6.43;;;-0.20;99.90;;;;;;7301326;19;20961;-76
2024/01/17 04:17:15;;;;;;;14.10;6.20;;;-0.10;99.90;;;;;;7278065;19;20188;-75
2024/01/17 04:19:41;;;;;;;14.43;6.23;;;-0.10;99.90;;;;;;7276926;19;20194;-75
2024/01/17 04:22:07;;;;;;;16.47;6.10;;;-0.20;99.90;;;;;;7280246;19;20188;-75
2024/01/17 04:24:33;;;;;;;15.33;6.23;;;0.00;99.90;;;;;;7279470;19;20200;-76
2024/01/17 04:26:58;;;;;;;13.63;6.00;;;0.00;99.90;;;;;;7278982;19;20205;-76
2024/01/17 04:29:24;;;;;;;16.00;6.63;;;0.10;99.90;;;;;;7279805;19;20192;-76
2024/01/17 04:31:51;;;;;;;17.10;6.17;;;0.10;99.90;;;;;;7301913;19;20185;-76
2024/01/17 04:34:16;;;;;;;13.87;6.33;;;0.30;99.90;;;;;;7280259;19;20664;-76
2024/01/17 04:36:42;;;;;;;14.30;6.67;;;0.20;99.90;;;;;;7278698;19;20189;-75
2024/01/17 04:39:08;;;;;;;17.95;7.40;;;0.10;99.90;;;;;;7277943;19;21046;-76
2024/01/17 04:41:34;;;;;;;16.20;6.50;;;0.10;99.90;;;;;;7278322;19;20192;-76
2024/01/17 04:44:00;;;;;;;14.67;6.57;;;0.10;99.90;;;;;;7278077;19;20215;-75
2024/01/17 04:46:27;;;;;;;15.40;6.20;;;0.10;99.90;;;;;;7278714;19;20252;-75
2024/01/17 04:48:52;;;;;;;13.73;6.60;;;0.10;99.90;;;;;;7288018;19;20196;-75
2024/01/17 04:51:21;;;;;;;16.90;6.53;;;0.10;99.90;;;;;;7299975;19;20620;-76
2024/01/17 04:53:48;;;;;;;16.87;6.83;;;0.10;99.90;;;;;;7279717;19;20546;-76
2024/01/17 04:56:15;;;;;;;11.87;5.73;;;0.00;99.90;;;;;;7277633;19;20265;-76
2024/01/17 04:58:43;;;;;;;14.90;6.00;;;0.10;99.90;;;;;;7279846;19;20179;-77
2024/01/17 05:01:10;;;;;;;14.13;6.27;;;0.00;99.90;;;;;;7279030;19;20194;-76
2024/01/17 05:03:36;;;;;;;12.53;5.97;;;0.00;99.90;;;;;;7279604;19;20222;-76
2024/01/17 05:06:02;;;;;;;14.53;6.13;;;0.00;99.90;;;;;;7277352;19;20214;-76
2024/01/17 05:08:28;;;;;;;16.20;6.40;;;0.00;99.90;;;;;;7278361;19;20184;-75
2024/01/17 05:10:57;;;;;;;15.13;6.67;;;0.00;99.90;;;;;;7276734;19;20205;-75
2024/01/17 05:13:22;;;;;;;14.60;5.97;;;0.20;99.90;;;;;;7286617;19;20185;-75
2024/01/17 05:15:48;;;;;;;15.93;6.67;;;0.20;99.90;;;;;;7298252;19;20214;-76
2024/01/17 05:18:14;;;;;;;16.80;7.10;;;0.40;99.90;;;;;;7279089;19;20217;-75
2024/01/17 05:20:40;;;;;;;17.97;6.80;;;0.60;99.90;;;;;;7279515;19;20193;-76
2024/01/17 05:23:06;;;;;;;17.73;7.30;;;0.60;99.90;;;;;;7279461;19;20195;-75
2024/01/17 05:25:32;;;;;;;16.93;7.43;;;0.60;99.90;;;;;;7278225;19;20197;-76
2024/01/17 05:27:58;;;;;;;16.23;6.70;;;0.50;99.90;;;;;;7278047;19;20192;-76
2024/01/17 05:30:24;;;;;;;14.53;6.50;;;0.40;99.90;;;;;;7278488;19;20196;-75
2024/01/17 05:32:51;;;;;;;15.53;6.77;;;0.20;99.90;;;;;;7300260;19;20195;-76
2024/01/17 05:35:17;;;;;;;16.43;6.67;;;0.10;99.90;;;;;;7277924;19;20232;-75
2024/01/17 05:37:43;;;;;;;16.23;6.63;;;0.10;99.90;;;;;;7277027;19;20179;-76
2024/01/17 05:40:10;;;;;;;16.87;6.90;;;0.10;99.90;;;;;;7276413;19;20192;-78
2024/01/17 05:42:37;;;;;;;14.53;6.70;;;0.00;99.90;;;;;;7274831;19;20184;-76
2024/01/17 05:45:04;;;;;;;14.67;6.67;;;0.20;99.90;;;;;;7277783;19;20222;-76
2024/01/17 05:47:30;;;;;;;14.97;6.27;;;0.10;99.90;;;;;;7274641;19;20176;-76
2024/01/17 05:49:57;;;;;;;15.07;6.60;;;0.00;99.90;;;;;;7276549;19;20679;-75
2024/01/17 05:52:26;;;;;;;16.07;6.43;;;0.00;99.90;;;;;;7290805;19;20181;-76
2024/01/17 05:54:51;;;;;;;18.40;7.00;;;0.00;99.90;;;;;;7302817;19;20192;-76
2024/01/17 05:57:17;;;;;;;15.77;6.60;;;0.10;99.90;;;;;;7285946;19;20184;-76
2024/01/17 05:59:43;;;;;;;17.55;8.63;;;0.00;99.90;;;;;;7285056;19;20733;-76
2024/01/17 06:02:08;;;;;;;19.33;7.00;;;0.20;99.90;;;;;;7282179;19;20185;-76
2024/01/17 06:04:34;;;;;;;18.17;7.23;;;0.30;99.90;;;;;;7284891;19;20533;-76
2024/01/17 06:07:00;;;;;;;18.03;7.63;;;0.30;99.90;;;;;;7283614;19;20195;-75
2024/01/17 06:09:26;;;;;;;15.27;6.87;;;0.20;99.90;;;;;;7284676;19;20180;-75
2024/01/17 06:11:52;;;;;;;14.70;7.17;;;0.10;99.90;;;;;;7305036;19;20185;-75
2024/01/17 06:14:17;;;;;;;15.80;7.53;;;0.10;99.90;;;;;;7284067;19;20264;-75
2024/01/17 06:16:44;;;;;;;16.87;6.77;;;0.00;99.90;;;;;;7282892;19;20216;-75
2024/01/17 06:19:10;;;;;;;23.20;8.07;;;0.10;99.90;;;;;;7282820;19;20185;-76
2024/01/17 06:21:36;;;;;;;17.13;6.67;;;0.10;99.90;;;;;;7285612;19;20200;-76
2024/01/17 06:24:01;;;;;;;15.07;7.20;;;0.20;99.90;;;;;;7283211;19;20727;-75
2024/01/17 06:26:27;;;;;;;17.60;7.10;;;0.30;99.90;;;;;;7281213;19;20199;-75
2024/01/17 06:28:53;;;;;;;15.10;6.60;;;0.40;99.90;;;;;;7294355;19;20189;-76
2024/01/17 06:31:22;;;;;;;17.37;7.00;;;0.50;99.90;;;;;;7302333;19;20195;-76
2024/01/17 06:33:49;;;;;;;17.40;7.63;;;0.50;99.90;;;;;;7284809;19;20624;-76
2024/01/17 06:36:14;;;;;;;19.60;9.13;;;0.40;99.90;;;;;;7282004;19;20824;-75
2024/01/17 06:38:40;;;;;;;19.43;7.97;;;0.40;99.90;;;;;;7283581;19;20544;-76
2024/01/17 06:41:06;;;;;;;18.90;7.83;;;0.40;99.90;;;;;;7284094;19;20641;-77
2024/01/17 06:43:31;;;;;;;17.80;8.23;;;0.30;99.90;;;;;;7283345;19;20588;-76
2024/01/17 06:45:58;;;;;;;17.03;7.40;;;0.30;99.90;;;;;;7282665;19;20177;-76
2024/01/17 06:48:23;;;;;;;17.20;7.57;;;0.20;99.90;;;;;;7288853;19;20217;-76
2024/01/17 06:50:49;;;;;;;17.20;7.23;;;0.20;99.90;;;;;;7304231;19;20668;-76
2024/01/17 06:53:17;;;;;;;19.30;7.77;;;0.30;99.90;;;;;;7282721;19;20189;-76
2024/01/17 06:55:46;;;;;;;16.33;7.40;;;0.30;99.90;;;;;;7283926;19;20190;-76
2024/01/17 06:58:12;;;;;;;19.37;8.47;;;0.40;99.90;;;;;;7284854;19;22037;-77
2024/01/17 07:00:37;;;;;;;18.97;8.20;;;0.50;99.90;;;;;;7282953;19;21024;-77
2024/01/17 07:03:03;;;;;;;17.63;8.13;;;0.50;99.90;;;;;;7285496;19;20189;-77
2024/01/17 07:05:29;;;;;;;19.13;7.97;;;0.60;99.90;;;;;;7283848;19;20185;-77
2024/01/17 07:07:55;;;;;;;20.02;9.25;;;0.50;99.90;;;;;;7282983;19;20804;-77
2024/01/17 07:10:20;;;;;;;19.47;7.93;;;0.70;99.90;;;;;;7306265;19;20194;-77
2024/01/17 07:12:46;;;;;;;18.10;8.00;;;0.90;99.90;;;;;;7284510;19;20632;-78
2024/01/17 07:15:12;;;;;;;15.80;7.63;;;1.00;99.90;;;;;;7288199;19;20270;-78
2024/01/17 07:17:38;;;;;;;18.20;8.10;;;1.20;99.90;;;;;;7286098;19;20192;-78
2024/01/17 07:20:05;;;;;;;18.20;7.97;;;1.30;99.90;;;;;;7285239;19;20654;-78
2024/01/17 07:22:30;;;;;;;17.47;8.20;;;1.40;99.90;;;;;;7286434;19;20245;-79
2024/01/17 07:24:56;;;;;;;21.77;8.73;;;1.50;99.90;;;;;;7284865;19;20267;-78
2024/01/17 07:27:22;;;;;;;16.27;8.13;;;1.60;99.90;;;;;;7304744;19;20195;-77
2024/01/17 07:29:48;;;;;;;15.93;7.60;;;1.70;99.90;;;;;;7296879;19;20206;-78
2024/01/17 07:32:14;;;;;;;17.60;8.43;;;1.80;99.90;;;;;;7285072;19;20181;-78
2024/01/17 07:34:39;;;;;;;19.63;8.37;;;1.70;99.90;;;;;;7286125;19;20200;-77
2024/01/17 07:37:05;;;;;;;15.97;7.27;;;1.70;99.90;;;;;;7284242;19;20537;-78
2024/01/17 07:39:31;;;;;;;16.40;7.73;;;1.80;99.90;;;;;;7286537;19;20190;-77
2024/01/17 07:41:56;;;;;;;19.10;8.50;;;1.80;99.90;;;;;;7280475;19;20197;-77
2024/01/17 07:44:27;;;;;;;19.80;8.37;;;1.80;99.90;;;;;;7305065;19;20266;-76
2024/01/17 07:46:53;;;;;;;20.67;8.90;;;1.80;99.90;;;;;;7299446;19;20223;-77
2024/01/17 07:49:19;;;;;;;20.73;8.87;;;1.80;99.90;;;;;;7303645;19;20185;-78
2024/01/17 07:51:45;;;;;;;18.37;8.40;;;1.70;99.90;;;;;;7284322;19;20536;-77
2024/01/17 07:54:11;;;;;;;24.73;9.57;;;1.80;99.90;;;;;;7284343;19;20188;-78
2024/01/17 07:56:37;;;;;;;22.90;9.00;;;1.90;99.90;;;;;;7284907;19;20708;-77
2024/01/17 07:59:02;;;;;;;19.83;9.07;;;2.00;99.90;;;;;;7281592;19;20208;-78
2024/01/17 08:01:29;;;;;;;20.83;9.40;;;2.10;99.90;;;;;;7283950;19;20198;-77
2024/01/17 08:03:55;;;;;;;17.93;8.80;;;2.10;99.90;;;;;;7281712;19;20697;-78
2024/01/17 08:06:21;;;;;;;21.17;9.90;;;1.90;99.90;;;;;;7302253;19;20191;-78
2024/01/17 08:08:46;;;;;;;19.83;9.67;;;2.00;99.90;;;;;;7280051;19;20281;-78
2024/01/17 08:11:12;;;;;;;22.37;9.43;;;2.00;99.90;;;;;;7281658;19;20206;-78
2024/01/17 08:13:38;;;;;;;19.27;8.97;;;2.10;99.90;;;;;;7282982;19;20193;-77
2024/01/17 08:16:04;;;;;;;19.27;9.33;;;2.10;99.90;;;;;;7284010;19;20198;-78
2024/01/17 08:18:30;;;;;;;22.63;9.20;;;2.10;99.90;;;;;;7280118;19;20187;-78
2024/01/17 08:20:55;;;;;;;23.03;9.47;;;2.10;99.90;;;;;;7283436;19;20258;-78
2024/01/17 08:23:21;;;;;;;20.63;9.07;;;2.10;99.90;;;;;;7301291;19;20195;-79
2024/01/17 08:25:47;;;;;;;19.57;9.83;;;2.00;99.90;;;;;;7282384;19;20189;-78
2024/01/17 08:28:12;;;;;;;21.90;10.30;;;2.10;99.90;;;;;;7281533;19;20284;-78
2024/01/17 08:30:38;;;;;;;20.80;9.40;;;2.20;99.90;;;;;;7283343;19;20198;-78
2024/01/17 08:33:04;;;;;;;18.80;9.37;;;2.20;99.90;;;;;;7283696;19;20586;-78
2024/01/17 08:35:31;;;;;;;27.53;13.47;;;2.20;99.90;;;;;;7282073;19;20600;-77
2024/01/17 08:37:56;;;;;;;17.63;9.47;;;2.30;99.90;;;;;;7281080;19;20193;-77
2024/01/17 08:40:22;;;;;;;23.40;9.77;;;2.40;99.90;;;;;;7305867;19;20184;-77
2024/01/17 08:42:48;;;;;;;22.40;9.80;;;2.50;99.90;;;;;;7282904;19;20189;-78
2024/01/17 08:45:15;;;;;;;20.00;9.53;;;2.60;99.90;;;;;;7282442;19;20659;-76
2024/01/17 08:47:42;;;;;;;21.23;9.77;;;2.60;99.90;;;;;;7282775;19;20747;-78
2024/01/17 08:50:09;;;;;;;20.37;10.03;;;2.60;99.90;;;;;;7282313;19;20190;-78
2024/01/17 08:52:35;;;;;;;25.43;10.77;;;2.70;99.90;;;;;;7283466;19;20207;-77
2024/01/17 08:55:02;;;;;;;23.93;10.10;;;2.70;99.90;;;;;;7282783;19;20199;-78
2024/01/17 08:57:28;;;;;;;21.33;9.93;;;2.80;99.90;;;;;;7280710;19;20192;-78
2024/01/17 08:59:54;;;;;;;22.50;10.47;;;2.80;99.90;;;;;;7288502;19;20219;-77
2024/01/17 09:02:20;;;;;;;27.33;10.30;;;2.90;99.90;;;;;;7304613;19;20258;-78
2024/01/17 09:04:46;;;;;;;23.50;10.40;;;2.90;99.90;;;;;;7282356;19;20194;-78
2024/01/17 09:07:11;;;;;;;17.30;9.13;;;2.90;99.90;;;;;;7281498;19;20185;-78
2024/01/17 09:09:37;;;;;;;20.67;9.87;;;2.90;99.90;;;;;;7281751;19;20261;-78
2024/01/17 09:12:03;;;;;;;20.37;9.63;;;2.90;99.90;;;;;;7282324;19;20194;-78
2024/01/17 09:14:29;;;;;;;23.67;10.57;;;2.60;99.90;;;;;;7280176;19;20189;-78
2024/01/17 09:16:56;;;;;;;20.97;10.00;;;2.60;99.90;;;;;;7281263;19;20194;-77
2024/01/17 09:19:22;;;;;;;21.07;9.87;;;2.70;99.90;;;;;;7304523;19;20190;-77
2024/01/17 09:21:51;;;;;;;21.87;9.53;;;2.80;99.90;;;;;;7279543;19;20209;-78
2024/01/17 09:24:17;;;;;;;18.90;9.37;;;2.80;99.90;;;;;;7281834;19;20198;-78
2024/01/17 09:26:43;;;;;;;24.07;9.80;;;2.90;99.90;;;;;;7280122;19;20249;-78
2024/01/17 09:29:09;;;;;;;22.93;10.03;;;2.90;99.90;;;;;;7280547;19;20184;-77
2024/01/17 09:31:35;;;;;;;24.70;10.53;;;3.00;99.90;;;;;;7281634;19;20278;-77
2024/01/17 09:34:01;;;;;;;24.47;10.53;;;3.00;99.90;;;;;;7281007;19;20191;-78
2024/01/17 09:36:27;;;;;;;22.13;10.23;;;3.10;99.90;;;;;;7280850;19;20196;-77
2024/01/17 09:38:52;;;;;;;26.47;10.07;;;3.10;99.90;;;;;;7303798;19;20195;-77
2024/01/17 09:41:19;;;;;;;20.43;10.03;;;3.00;99.90;;;;;;7279772;19;20191;-77
2024/01/17 09:43:44;;;;;;;26.07;10.90;;;2.90;99.90;;;;;;7281806;19;20189;-77
2024/01/17 09:46:12;;;;;;;25.23;10.90;;;2.80;99.90;;;;;;7281258;19;20186;-77
2024/01/17 09:48:41;;;;;;;22.40;11.00;;;2.80;99.90;;;;;;7282076;19;20188;-77
2024/01/17 09:51:08;;;;;;;24.97;9.90;;;2.80;99.90;;;;;;7280965;19;20636;-78
2024/01/17 09:53:34;;;;;;;21.97;10.80;;;2.80;99.90;;;;;;7281022;19;20188;-77
2024/01/17 09:56:02;;;;;;;22.13;10.33;;;2.80;99.90;;;;;;7281019;19;20203;-77
2024/01/17 09:58:33;;;;;;;25.07;10.23;;;2.80;99.90;;;;;;7280859;19;20196;-77
2024/01/17 10:01:02;;;;;;;21.83;10.23;;;2.80;99.90;;;;;;7280668;19;20613;-77
2024/01/17 10:03:29;;;;;;;21.47;10.93;;;2.80;99.90;;;;;;7278946;19;20181;-77
2024/01/17 10:05:56;;;;;;;25.80;11.70;;;2.80;99.90;;;;;;7281772;19;20224;-76
2024/01/17 10:08:22;;;;;;;26.93;11.73;;;2.80;99.90;;;;;;7303085;19;20187;-77
2024/01/17 10:10:48;;;;;;;24.93;10.90;;;2.80;99.90;;;;;;7281152;19;20189;-77
2024/01/17 10:13:14;;;;;;;23.80;11.50;;;2.70;99.90;;;;;;7279122;19;20198;-78
2024/01/17 10:15:45;;;;;;;23.50;11.33;;;2.60;99.90;;;;;;7280460;19;20537;-78
2024/01/17 10:18:11;;;;;;;29.80;11.73;;;2.50;99.90;;;;;;7279319;19;20197;-78
2024/01/17 10:20:37;;;;;;;24.33;11.57;;;2.50;99.90;;;;;;7278322;19;20192;-77
2024/01/17 10:23:05;;;;;;;25.33;11.60;;;2.50;99.90;;;;;;7278859;19;20192;-78
2024/01/17 10:25:44;;;;;;;26.67;12.13;;;2.50;99.90;;;;;;7278587;19;20676;-77
2024/01/17 10:28:10;;;;;;;25.90;12.70;;;2.50;99.90;;;;;;7279787;19;20197;-78
2024/01/17 10:30:41;;;;;;;26.20;12.67;;;2.60;99.90;;;;;;7292284;19;20182;-77
2024/01/17 10:33:08;;;;;;;25.67;13.07;;;2.50;99.90;;;;;;7297073;19;20232;-78
2024/01/17 10:35:34;;;;;;;30.97;14.60;;;2.50;99.90;;;;;;7297497;19;20309;-78
2024/01/17 10:38:00;;;;;;;40.07;18.87;;;2.40;99.90;;;;;;7300880;19;20185;-78
2024/01/17 10:40:25;;;;;;;31.63;15.10;;;2.40;99.90;;;;;;7303723;19;20219;-77
2024/01/17 10:43:09;;;;;;;24.10;12.83;;;2.50;99.90;;;;;;7307840;19;20189;-79
2024/01/17 10:45:37;;;;;;;26.60;12.83;;;2.30;99.90;;;;;;7185276;19;2004664;-78
2024/01/17 10:48:04;;;;;;;29.43;13.20;;;2.30;99.90;;;;;;7285676;19;20198;-78
2024/01/17 10:50:30;;;;;;;25.90;11.60;;;2.30;99.90;;;;;;7283751;19;20203;-78
2024/01/17 10:53:06;;;;;;;27.97;14.20;;;2.30;99.90;;;;;;7288100;19;20553;-78
2024/01/17 10:55:36;;;;;;;29.20;13.23;;;2.10;99.90;;;;;;7272134;19;20700;-79
2024/01/17 10:58:07;;;;;;;24.93;12.20;;;2.00;99.90;;;;;;7286601;19;20202;-78
2024/01/17 11:00:35;;;;;;;32.43;14.70;;;1.80;99.90;;;;;;7281905;19;20245;-78
2024/01/17 11:03:09;;;;;;;31.97;15.57;;;1.60;99.90;;;;;;7280791;19;20921;-78
2024/01/17 11:05:50;;;;;;;34.77;17.27;;;1.40;99.90;;;;;;7283145;19;20200;-78
2024/01/17 11:08:18;;;;;;;28.63;13.60;;;1.40;99.90;;;;;;7285306;19;21513;-79
2024/01/17 11:10:44;;;;;;;29.10;13.13;;;1.40;99.90;;;;;;7286269;19;21508;-77
2024/01/17 11:13:15;;;;;;;29.60;14.30;;;1.40;99.90;;;;;;7287774;19;20244;-78
2024/01/17 11:15:44;;;;;;;27.07;13.50;;;1.50;99.90;;;;;;7287201;19;20768;-78
2024/01/17 11:18:10;;;;;;;29.33;15.03;;;1.70;99.90;;;;;;7285640;19;20682;-78
2024/01/17 11:20:39;;;;;;;31.27;15.33;;;1.80;99.90;;;;;;7286058;19;20199;-78
2024/01/17 11:23:09;;;;;;;29.50;14.10;;;1.70;99.90;;;;;;7287273;19;20197;-78
2024/01/17 11:26:15;;;;;;;31.13;14.67;;;1.50;99.90;;;;;;7282351;19;20200;-78
2024/01/17 11:29:04;;;;;;;34.33;14.90;;;1.30;99.90;;;;;;7180388;19;2006423;-78
2024/01/17 11:32:03;;;;;;;29.07;15.03;;;1.60;99.90;;;;;;7181595;19;2006537;-78
2024/01/17 11:34:29;;;;;;;31.07;14.20;;;1.60;99.90;;;;;;7263827;19;20192;-78
2024/01/17 11:36:55;;;;;;;34.27;15.83;;;1.60;99.90;;;;;;7297428;19;20189;-76
2024/01/17 11:39:22;;;;;;;35.87;15.23;;;1.60;99.90;;;;;;7303080;19;20185;-78
2024/01/17 11:41:49;;;;;;;34.37;15.87;;;1.70;99.90;;;;;;7285193;19;20705;-77
2024/01/17 11:44:18;;;;;;;38.40;17.97;;;1.60;99.90;;;;;;7282891;19;20524;-78
2024/01/17 11:46:51;;;;;;;35.37;17.13;;;1.60;99.90;;;;;;7281846;19;20673;-77
2024/01/17 11:49:40;;;;;;;33.53;15.20;;;1.70;99.90;;;;;;7284538;19;20580;-77
2024/01/17 11:52:27;;;;;;;36.53;18.10;;;1.80;99.90;;;;;;7181754;19;2004614;-77
2024/01/17 11:54:54;;;;;;;36.23;17.87;;;1.80;99.90;;;;;;7286627;19;20205;-77
2024/01/17 11:57:20;;;;;;;44.77;18.60;;;1.90;99.90;;;;;;7285213;19;20219;-77
2024/01/17 12:00:11;;;;;;;39.87;19.23;;;1.90;99.90;;;;;;7286412;19;20175;-78
2024/01/17 12:02:41;;;;;;;39.83;18.23;;;2.00;99.90;;;;;;7178893;19;2006098;-77
2024/01/17 12:05:08;;;;;;;40.90;18.57;;;1.90;99.90;;;;;;7284357;19;20185;-78
2024/01/17 12:07:41;;;;;;;36.23;17.30;;;1.80;99.90;;;;;;7283569;19;20204;-78
2024/01/17 12:10:11;;;;;;;42.53;18.03;;;1.90;99.90;;;;;;7287427;19;20189;-78
2024/01/17 12:12:38;;;;;;;38.83;18.17;;;2.00;99.90;;;;;;7283276;19;20198;-77
2024/01/17 12:15:09;;;;;;;36.47;17.77;;;2.10;99.90;;;;;;7285409;19;20740;-78
2024/01/17 12:17:37;;;;;;;31.93;17.27;;;2.00;99.90;;;;;;7284884;19;20198;-77
2024/01/17 12:20:07;;;;;;;39.30;16.47;;;2.00;99.90;;;;;;7282961;19;20299;-77
2024/01/17 12:22:34;;;;;;;36.63;17.87;;;1.90;99.90;;;;;;7284566;19;20199;-77
2024/01/17 12:25:00;;;;;;;38.77;18.30;;;2.00;99.90;;;;;;7282966;19;20185;-79
2024/01/17 12:27:30;;;;;;;37.27;19.40;;;2.00;99.90;;;;;;7285044;19;20592;-78
2024/01/17 12:30:01;;;;;;;37.20;18.33;;;2.00;99.90;;;;;;7284802;19;20196;-77
2024/01/17 12:32:27;;;;;;;36.37;17.80;;;1.90;99.90;;;;;;7284220;19;20197;-76
2024/01/17 12:34:52;;;;;;;32.63;16.30;;;1.80;99.90;;;;;;7305483;19;20223;-77
2024/01/17 12:37:19;;;;;;;36.83;17.83;;;1.70;99.90;;;;;;7280264;19;20617;-77
2024/01/17 12:39:44;;;;;;;36.27;17.00;;;1.70;99.90;;;;;;7282486;19;22293;-77
2024/01/17 12:42:10;;;;;;;34.23;17.20;;;1.80;99.90;;;;;;7280855;19;20657;-77